Time;durP1;ratioP1;P1;durP2;ratioP2;P2;SDS_P1;SDS_P2;PMS_P1;PMS_P2;Temp;Humidity;BMP_temperature;BMP_pressure;BME280_temperature;BME280_humidity;BME280_pressure;Samples;Min_cycle;Max_cycle;Signal;HPM_P1;HPM_P2
2022/09/14 00:00:10;;;;;;;3.17;0.80;;;;;;;18.70;51.90;99103.28;5109815;28;20142;-62
2022/09/14 00:02:36;;;;;;;4.35;0.90;;;;;;;18.68;51.94;99105.25;5109751;28;20490;-62
2022/09/14 00:05:03;;;;;;;2.50;0.80;;;;;;;18.65;51.70;99103.72;5113935;28;20066;-61
2022/09/14 00:07:30;;;;;;;3.22;0.80;;;;;;;18.63;51.92;99103.06;5113959;28;20134;-61
2022/09/14 00:09:57;;;;;;;2.15;0.80;;;;;;;18.60;52.11;99109.53;5113717;28;20055;-62
2022/09/14 00:12:24;;;;;;;1.85;0.80;;;;;;;18.57;52.08;99111.66;5114164;28;20104;-62
2022/09/14 00:14:50;;;;;;;5.85;0.80;;;;;;;18.54;51.98;99112.81;5113621;28;20134;-63
2022/09/14 00:17:17;;;;;;;2.83;0.73;;;;;;;18.51;52.25;99104.28;5113647;28;20090;-62
2022/09/14 00:19:44;;;;;;;2.70;0.75;;;;;;;18.48;52.11;99103.63;5113376;28;20093;-61
2022/09/14 00:22:10;;;;;;;2.50;0.75;;;;;;;18.45;52.10;99097.75;5113530;28;20109;-63
2022/09/14 00:24:37;;;;;;;4.57;0.77;;;;;;;18.41;52.42;99096.38;5112270;28;20081;-62
2022/09/14 00:27:04;;;;;;;5.20;0.70;;;;;;;18.38;52.65;99100.22;5113805;28;20098;-62
2022/09/14 00:29:30;;;;;;;4.15;0.55;;;;;;;18.36;52.40;99100.34;5113103;28;20078;-62
2022/09/14 00:31:57;;;;;;;2.55;0.73;;;;;;;18.34;52.03;99099.69;5113266;28;20079;-62
2022/09/14 00:34:24;;;;;;;3.28;0.80;;;;;;;18.31;52.16;99101.81;5113381;28;20047;-62
2022/09/14 00:36:51;;;;;;;5.93;0.90;;;;;;;18.27;52.45;99095.13;5113323;28;20452;-61
2022/09/14 00:39:22;;;;;;;1.75;0.57;;;;;;;18.22;52.47;99084.94;5113016;28;20132;-62
2022/09/14 00:41:50;;;;;;;4.05;0.80;;;;;;;18.19;52.47;99088.75;5113080;28;20143;-62
2022/09/14 00:44:16;;;;;;;2.78;1.00;;;;;;;18.17;52.92;99080.06;5111650;28;20105;-62
2022/09/14 00:46:45;;;;;;;2.70;0.88;;;;;;;18.13;53.29;99083.19;5113269;28;20142;-62
2022/09/14 00:49:17;;;;;;;5.32;0.82;;;;;;;18.10;53.77;99084.34;5112653;28;20066;-61
2022/09/14 00:51:57;;;;;;;2.50;0.60;;;;;;;18.06;53.96;99081.09;5112935;28;20047;-62
2022/09/14 00:54:25;;;;;;;4.32;0.82;;;;;;;18.09;53.29;99080.81;5113511;28;20549;-63
2022/09/14 00:56:52;;;;;;;5.35;0.60;;;;;;;18.06;53.32;99081.09;5112718;28;20043;-61
2022/09/14 00:59:22;;;;;;;2.85;0.63;;;;;;;18.04;53.82;99077.75;5112780;28;20077;-62
2022/09/14 01:01:49;;;;;;;3.33;0.68;;;;;;;18.03;53.44;99070.78;5113318;28;20059;-62
2022/09/14 01:04:16;;;;;;;2.80;0.82;;;;;;;18.02;53.37;99069.06;5112658;28;20048;-61
2022/09/14 01:06:59;;;;;;;2.35;0.63;;;;;;;17.97;54.07;99068.69;5112623;28;20082;-63
2022/09/14 01:09:49;;;;;;;2.38;0.65;;;;;;;17.97;53.92;99056.25;5112568;28;20048;-62
2022/09/14 01:12:33;;;;;;;4.60;0.60;;;;;;;17.96;53.79;99056.38;5112630;28;20051;-62
2022/09/14 01:15:16;;;;;;;4.43;1.10;;;;;;;17.92;54.09;99057.69;5112145;28;20044;-62
2022/09/14 01:17:48;;;;;;;1.27;0.55;;;;;;;17.90;54.10;99054.34;5112351;28;20079;-62
2022/09/14 01:20:31;;;;;;;4.55;1.10;;;;;;;17.86;53.59;99055.63;5112405;28;20085;-61
2022/09/14 01:22:58;;;;;;;3.63;0.73;;;;;;;17.86;53.14;99058.31;5112413;28;20079;-61
2022/09/14 01:25:38;;;;;;;3.33;0.85;;;;;;;17.79;53.81;99061.56;5112259;28;20051;-62
2022/09/14 01:28:14;;;;;;;1.17;0.47;;;;;;;17.76;53.68;99058.38;5112161;28;20506;-61
2022/09/14 01:30:42;;;;;;;3.30;0.85;;;;;;;17.74;53.38;99045.22;5111209;28;20829;-62
2022/09/14 01:33:23;;;;;;;2.33;0.50;;;;;;;17.68;54.09;99035.19;5112316;28;20104;-62
2022/09/14 01:35:54;;;;;;;2.17;0.55;;;;;;;17.66;53.86;99037.13;5112196;28;20087;-61
2022/09/14 01:38:30;;;;;;;4.07;0.70;;;;;;;17.62;54.48;99043.75;5111997;28;20476;-61
2022/09/14 01:41:00;;;;;;;3.88;0.57;;;;;;;17.62;53.86;99041.09;5111998;28;20535;-63
2022/09/14 01:43:32;;;;;;;3.20;0.73;;;;;;;17.57;54.36;99038.91;5110977;28;20563;-63
2022/09/14 01:46:08;;;;;;;1.67;0.57;;;;;;;17.56;53.91;99042.53;5110740;28;20104;-62
2022/09/14 01:48:45;;;;;;;4.78;0.70;;;;;;;17.53;53.79;99038.34;5110474;28;20086;-64
2022/09/14 01:51:18;;;;;;;2.38;0.57;;;;;;;17.51;53.85;99029.69;5111917;28;20087;-62
2022/09/14 01:53:49;;;;;;;2.10;0.73;;;;;;;17.49;54.10;99026.31;5110719;28;20075;-61
2022/09/14 01:56:24;;;;;;;1.23;0.57;;;;;;;17.45;54.48;99019.63;5110606;28;20097;-61
2022/09/14 01:59:00;;;;;;;2.70;0.77;;;;;;;17.43;54.50;99029.59;5111672;28;20078;-61
2022/09/14 02:01:35;;;;;;;3.65;0.93;;;;;;;17.43;54.33;99032.25;5111659;28;20103;-63
2022/09/14 02:04:07;;;;;;;2.05;0.43;;;;;;;17.39;54.19;99030.88;5111841;28;20098;-61
2022/09/14 02:06:46;;;;;;;3.05;0.70;;;;;;;17.33;54.29;99034.97;5110337;28;20081;-60
2022/09/14 02:09:18;;;;;;;1.98;0.60;;;;;;;17.34;54.53;99038.47;5111394;28;20098;-63
2022/09/14 02:11:45;;;;;;;2.83;0.95;;;;;;;17.31;54.15;99040.44;5110148;28;20075;-60
2022/09/14 02:14:12;;;;;;;2.78;0.85;;;;;;;17.28;54.25;99035.44;5110431;28;20075;-62
2022/09/14 02:16:42;;;;;;;2.25;0.85;;;;;;;17.27;54.49;99028.41;5111524;28;20369;-62
2022/09/14 02:19:09;;;;;;;5.32;0.68;;;;;;;17.25;54.48;99022.44;5109925;28;20047;-62
2022/09/14 02:21:37;;;;;;;6.05;0.80;;;;;;;17.25;54.65;99034.88;5111457;28;20082;-62
2022/09/14 02:24:04;;;;;;;4.40;0.68;;;;;;;17.23;54.61;99020.91;5111137;28;20093;-62
2022/09/14 02:26:31;;;;;;;0.95;0.57;;;;;;;17.22;54.92;99022.72;5110621;28;20043;-61
2022/09/14 02:28:58;;;;;;;1.60;0.50;;;;;;;17.22;54.88;99019.22;5111339;28;20086;-62
2022/09/14 02:31:24;;;;;;;2.67;0.70;;;;;;;17.22;54.96;99025.38;5111145;28;20078;-61
2022/09/14 02:34:09;;;;;;;2.13;0.50;;;;;;;17.19;55.35;99020.34;5111262;28;20047;-61
2022/09/14 02:36:59;;;;;;;2.63;0.68;;;;;;;17.22;55.31;99025.38;5111559;28;20100;-62
2022/09/14 02:39:34;;;;;;;1.63;0.50;;;;;;;17.22;55.64;99024.53;5109898;28;20142;-63
2022/09/14 02:42:19;;;;;;;1.88;0.50;;;;;;;17.24;54.67;99028.75;5110872;28;20403;-62
2022/09/14 02:45:00;;;;;;;4.10;0.63;;;;;;;17.22;55.46;99014.75;5111175;28;20055;-62
2022/09/14 02:47:54;;;;;;;4.68;0.75;;;;;;;17.22;55.60;99013.88;5109697;28;20048;-60
2022/09/14 02:50:46;;;;;;;1.67;0.50;;;;;;;17.19;55.28;99005.25;5110801;28;20094;-61
2022/09/14 02:53:20;;;;;;;4.00;0.40;;;;;;;17.23;55.62;98995.13;5110985;28;20059;-62
2022/09/14 02:55:52;;;;;;;3.22;0.57;;;;;;;17.22;55.97;98985.47;5109949;28;20079;-62
2022/09/14 02:58:19;;;;;;;2.15;0.60;;;;;;;17.25;55.45;98989.66;5110938;28;20509;-61
2022/09/14 03:00:47;;;;;;;6.45;0.93;;;;;;;17.25;55.73;98987.84;5110803;28;20479;-62
2022/09/14 03:03:17;;;;;;;2.13;0.77;;;;;;;17.28;55.78;98982.25;5109555;28;20487;-62
2022/09/14 03:05:44;;;;;;;4.68;0.70;;;;;;;17.29;55.70;98975.09;5110786;28;20071;-60
2022/09/14 03:08:11;;;;;;;3.42;0.80;;;;;;;17.31;55.47;98970.47;5110518;28;20538;-62
2022/09/14 03:10:41;;;;;;;2.53;0.60;;;;;;;17.32;55.87;98975.59;5109596;28;20121;-61
2022/09/14 03:13:08;;;;;;;3.80;0.70;;;;;;;17.35;55.76;98976.31;5110885;28;20043;-61
2022/09/14 03:15:35;;;;;;;8.90;0.88;;;;;;;17.37;55.52;98984.97;5110764;28;20079;-61
2022/09/14 03:18:01;;;;;;;2.70;0.70;;;;;;;17.38;55.89;98982.16;5110665;28;20055;-61
2022/09/14 03:20:31;;;;;;;2.75;0.88;;;;;;;17.39;56.42;98977.69;5110538;28;20047;-62
2022/09/14 03:22:58;;;;;;;2.45;0.52;;;;;;;17.42;55.99;98977.38;5109283;28;20079;-62
2022/09/14 03:25:26;;;;;;;1.65;0.60;;;;;;;17.44;55.88;98978.91;5110476;28;20075;-63
2022/09/14 03:27:56;;;;;;;3.85;0.70;;;;;;;17.45;56.11;98974.41;5109513;28;20421;-61
2022/09/14 03:30:23;;;;;;;1.55;0.40;;;;;;;17.48;55.88;98975.91;5110413;28;20051;-63
2022/09/14 03:32:50;;;;;;;2.63;0.50;;;;;;;17.48;56.07;98968.78;5110416;28;20078;-62
2022/09/14 03:35:17;;;;;;;1.42;0.60;;;;;;;17.48;56.07;98963.47;5110429;28;20071;-61
2022/09/14 03:37:45;;;;;;;1.77;0.70;;;;;;;17.50;56.15;98958.00;5113663;28;20079;-62
2022/09/14 03:40:14;;;;;;;3.85;0.70;;;;;;;17.51;56.16;98964.97;5113008;28;20043;-61
2022/09/14 03:42:48;;;;;;;2.95;0.70;;;;;;;17.51;56.01;98963.16;5114838;28;20043;-61
2022/09/14 03:45:16;;;;;;;2.53;0.60;;;;;;;17.51;55.99;98955.19;5114412;28;20079;-63
2022/09/14 03:47:43;;;;;;;4.60;0.50;;;;;;;17.51;55.94;98963.16;5112842;28;20080;-64
2022/09/14 03:50:11;;;;;;;4.93;1.00;;;;;;;17.51;55.96;98965.81;5114111;28;20147;-61
2022/09/14 03:52:38;;;;;;;4.95;0.73;;;;;;;17.51;55.70;98960.50;5113067;28;20079;-61
2022/09/14 03:55:08;;;;;;;3.03;0.60;;;;;;;17.49;56.03;98957.16;5114293;28;20139;-62
2022/09/14 03:57:35;;;;;;;7.20;0.63;;;;;;;17.49;56.04;98957.16;5114228;28;20056;-62
2022/09/14 04:00:03;;;;;;;7.72;0.95;;;;;;;17.47;55.94;98945.84;5113794;28;20182;-61
2022/09/14 04:02:29;;;;;;;3.50;0.88;;;;;;;17.44;55.85;98949.63;5112529;28;20048;-62
2022/09/14 04:04:56;;;;;;;2.50;0.77;;;;;;;17.44;55.72;98948.78;5113978;28;20483;-61
2022/09/14 04:07:23;;;;;;;3.35;0.40;;;;;;;17.41;55.52;98946.44;5114027;28;20075;-61
2022/09/14 04:09:49;;;;;;;0.88;0.40;;;;;;;17.38;55.89;98938.78;5113652;28;20188;-62
2022/09/14 04:12:16;;;;;;;2.80;0.70;;;;;;;17.35;55.89;98947.91;5113891;28;20084;-63
2022/09/14 04:14:42;;;;;;;4.35;0.57;;;;;;;17.34;55.52;98948.03;5113786;28;20464;-61
2022/09/14 04:17:09;;;;;;;3.88;0.70;;;;;;;17.30;55.40;98937.69;5113208;28;20080;-60
2022/09/14 04:19:39;;;;;;;1.58;0.50;;;;;;;17.27;55.70;98942.50;5113685;28;20083;-62
2022/09/14 04:22:06;;;;;;;4.28;0.65;;;;;;;17.25;55.69;98939.13;5113848;28;20136;-61
2022/09/14 04:24:33;;;;;;;3.13;0.50;;;;;;;17.23;55.59;98925.16;5113554;28;20047;-60
2022/09/14 04:26:59;;;;;;;3.17;0.65;;;;;;;17.20;55.69;98928.97;5113442;28;20134;-60
2022/09/14 04:29:26;;;;;;;1.48;0.57;;;;;;;17.16;55.77;98933.72;5113477;28;20087;-61
2022/09/14 04:31:52;;;;;;;3.58;0.80;;;;;;;17.16;55.80;98930.25;5113310;28;20134;-62
2022/09/14 04:34:19;;;;;;;5.55;0.70;;;;;;;17.13;55.89;98931.41;5113546;28;20075;-61
2022/09/14 04:36:45;;;;;;;3.47;0.68;;;;;;;17.11;56.05;98938.66;5113414;28;20138;-61
2022/09/14 04:39:15;;;;;;;3.58;0.52;;;;;;;17.08;56.03;98932.81;5113184;28;20055;-62
2022/09/14 04:41:42;;;;;;;3.50;0.77;;;;;;;17.05;56.27;98934.78;5113214;28;20088;-62
2022/09/14 04:44:09;;;;;;;2.03;0.70;;;;;;;17.04;56.47;98933.13;5113146;28;20058;-62
2022/09/14 04:46:38;;;;;;;2.03;0.57;;;;;;;17.03;56.44;98938.53;5111873;28;20127;-60
2022/09/14 04:49:11;;;;;;;6.10;1.00;;;;;;;17.02;56.41;98945.72;5112397;28;20047;-60
2022/09/14 04:51:38;;;;;;;3.75;0.70;;;;;;;17.01;56.47;98944.00;5113136;28;20055;-61
2022/09/14 04:54:06;;;;;;;1.33;0.80;;;;;;;17.00;56.54;98938.84;5112904;28;20051;-64
2022/09/14 04:56:35;;;;;;;2.33;0.68;;;;;;;16.98;56.96;98936.34;5113003;28;20083;-63
2022/09/14 04:59:03;;;;;;;4.93;0.80;;;;;;;16.98;56.96;98931.03;5112550;27;20148;-60
2022/09/14 05:01:42;;;;;;;1.73;0.70;;;;;;;16.95;57.63;98928.66;5111707;28;20087;-61
2022/09/14 05:04:10;;;;;;;3.33;0.90;;;;;;;16.99;57.02;98924.72;5112507;28;20058;-61
2022/09/14 05:06:39;;;;;;;4.15;1.20;;;;;;;16.99;57.02;98919.41;5112369;28;20039;-66
2022/09/14 05:09:09;;;;;;;6.25;1.25;;;;;;;17.00;57.40;98914.91;5112064;28;20082;-61
2022/09/14 05:11:36;;;;;;;4.72;0.88;;;;;;;17.01;57.18;98914.75;5112742;28;20051;-61
2022/09/14 05:14:03;;;;;;;5.68;1.00;;;;;;;17.02;57.10;98915.63;5112851;27;20054;-60
2022/09/14 05:16:35;;;;;;;4.70;1.13;;;;;;;17.03;57.38;98917.28;5112711;28;20059;-61
2022/09/14 05:19:04;;;;;;;5.18;1.08;;;;;;;17.03;57.56;98918.13;5112443;28;20079;-61
2022/09/14 05:21:33;;;;;;;6.13;0.90;;;;;;;17.04;57.52;98922.47;5112447;28;20521;-62
2022/09/14 05:24:06;;;;;;;2.35;0.80;;;;;;;17.03;57.56;98923.44;5110971;28;20039;-60
2022/09/14 05:26:33;;;;;;;2.15;0.80;;;;;;;17.04;57.13;98917.16;5112497;28;20138;-63
2022/09/14 05:29:01;;;;;;;3.38;1.20;;;;;;;17.05;57.28;98918.81;5111948;28;20083;-61
2022/09/14 05:31:29;;;;;;;7.32;1.38;;;;;;;17.05;57.09;98918.81;5112125;28;20043;-61
2022/09/14 05:33:57;;;;;;;4.40;1.27;;;;;;;17.05;57.08;98918.81;5112276;28;20059;-61
2022/09/14 05:36:24;;;;;;;3.67;1.10;;;;;;;17.08;57.17;98923.00;5110644;28;20507;-62
2022/09/14 05:38:51;;;;;;;1.65;0.82;;;;;;;17.09;57.45;98918.53;5111872;28;20079;-61
2022/09/14 05:41:18;;;;;;;3.50;1.05;;;;;;;17.09;57.77;98916.72;5112339;28;20083;-61
2022/09/14 05:43:45;;;;;;;2.13;1.00;;;;;;;17.13;57.63;98906.63;5112017;28;20135;-61
2022/09/14 05:46:13;;;;;;;3.33;0.90;;;;;;;17.15;57.84;98912.59;5111706;28;20071;-62
2022/09/14 05:48:40;;;;;;;2.15;0.80;;;;;;;17.18;57.69;98913.16;5110555;28;20059;-62
2022/09/14 05:51:14;;;;;;;3.45;0.98;;;;;;;17.22;58.42;98915.50;5110987;28;20040;-62
2022/09/14 05:53:42;;;;;;;1.95;0.63;;;;;;;17.26;58.20;98914.19;5111974;28;20468;-63
2022/09/14 05:56:11;;;;;;;5.15;1.38;;;;;;;17.28;58.59;98913.09;5111393;28;20467;-62
2022/09/14 05:58:39;;;;;;;4.00;1.10;;;;;;;17.32;58.50;98906.44;5109690;28;20073;-61
2022/09/14 06:01:10;;;;;;;3.15;1.05;;;;;;;17.37;58.60;98907.81;5111151;28;20097;-62
2022/09/14 06:03:37;;;;;;;6.07;1.08;;;;;;;17.42;58.29;98908.22;5111771;28;20093;-62
2022/09/14 06:06:06;;;;;;;3.78;1.10;;;;;;;17.47;58.33;98905.94;5111263;28;20093;-64
2022/09/14 06:08:33;;;;;;;5.53;0.93;;;;;;;17.53;58.03;98905.31;5109765;28;20484;-61
2022/09/14 06:11:08;;;;;;;9.48;1.58;;;;;;;17.55;58.16;98908.66;5111549;28;20102;-62
2022/09/14 06:13:36;;;;;;;5.32;1.50;;;;;;;17.62;57.70;98905.38;5110610;28;20085;-62
2022/09/14 06:16:07;;;;;;;5.65;1.35;;;;;;;17.64;57.67;98914.88;5110836;28;20051;-65
2022/09/14 06:18:35;;;;;;;4.15;1.25;;;;;;;17.67;57.59;98906.59;5111261;28;20464;-62
2022/09/14 06:21:03;;;;;;;4.53;0.70;;;;;;;17.70;57.51;98910.75;5111275;28;20491;-62
2022/09/14 06:23:30;;;;;;;2.47;1.00;;;;;;;17.73;57.59;98910.47;5111347;28;20083;-63
2022/09/14 06:26:02;;;;;;;4.32;1.05;;;;;;;17.74;57.26;98904.13;5111068;28;20550;-62
2022/09/14 06:28:30;;;;;;;4.15;1.02;;;;;;;17.78;56.81;98905.50;5111140;28;20578;-63
2022/09/14 06:30:57;;;;;;;3.47;1.00;;;;;;;17.78;56.97;98892.19;5109946;28;20121;-61
2022/09/14 06:33:24;;;;;;;3.30;1.17;;;;;;;17.80;56.89;98900.03;5110086;28;20048;-61
2022/09/14 06:36:11;;;;;;;7.40;1.17;;;;;;;17.77;57.87;98895.84;5111175;28;20130;-63
2022/09/14 06:38:39;;;;;;;6.50;1.73;;;;;;;17.83;57.17;98894.41;5109573;28;20412;-62
2022/09/14 06:41:08;;;;;;;3.05;1.50;;;;;;;17.86;57.44;98895.91;5110872;28;20131;-62
2022/09/14 06:43:40;;;;;;;4.25;1.58;;;;;;;17.88;57.40;98909.88;5111103;28;20091;-61
2022/09/14 06:46:18;;;;;;;3.63;1.15;;;;;;;17.89;57.47;98903.56;5111108;28;20406;-62
2022/09/14 06:48:51;;;;;;;8.25;1.80;;;;;;;17.93;57.09;98911.09;5110879;28;20134;-62
2022/09/14 06:51:22;;;;;;;3.25;1.45;;;;;;;17.97;56.56;98904.47;5110000;28;20051;-62
2022/09/14 06:53:50;;;;;;;3.45;1.40;;;;;;;17.99;57.09;98898.97;5111092;28;20086;-63
2022/09/14 06:56:17;;;;;;;7.10;2.00;;;;;;;18.02;57.28;98911.97;5110995;28;20113;-61
2022/09/14 06:58:44;;;;;;;5.75;1.95;;;;;;;18.05;57.16;98906.34;5110706;28;20116;-61
2022/09/14 07:01:15;;;;;;;6.38;1.85;;;;;;;18.08;57.34;98910.53;5111197;28;20097;-63
2022/09/14 07:03:42;;;;;;;4.20;1.73;;;;;;;18.12;57.23;98919.06;5110808;28;20040;-62
2022/09/14 07:06:13;;;;;;;4.72;1.80;;;;;;;18.16;58.06;98925.75;5111125;28;20326;-62
2022/09/14 07:08:39;;;;;;;3.83;1.55;;;;;;;18.21;57.46;98921.59;5111024;28;20079;-62
2022/09/14 07:11:08;;;;;;;3.90;1.80;;;;;;;18.27;57.79;98920.13;5111230;28;20054;-62
2022/09/14 07:13:35;;;;;;;3.38;1.80;;;;;;;18.32;57.34;98912.50;5115017;28;20112;-63
2022/09/14 07:16:02;;;;;;;7.38;1.70;;;;;;;18.36;57.49;98900.53;5114944;28;20056;-62
2022/09/14 07:18:33;;;;;;;9.55;1.85;;;;;;;18.41;57.45;98902.72;5114884;28;20090;-62
2022/09/14 07:21:10;;;;;;;5.00;1.40;;;;;;;18.47;58.02;98906.59;5115081;28;20411;-61
2022/09/14 07:23:38;;;;;;;4.18;0.98;;;;;;;18.55;57.91;98911.13;5114624;28;20078;-61
2022/09/14 07:26:08;;;;;;;5.60;1.60;;;;;;;18.61;57.53;98919.31;5114630;28;20130;-62
2022/09/14 07:28:36;;;;;;;9.05;1.40;;;;;;;18.69;57.54;98920.34;5114399;28;20079;-63
2022/09/14 07:31:04;;;;;;;4.95;1.30;;;;;;;18.77;57.79;98908.84;5113311;28;20083;-62
2022/09/14 07:33:31;;;;;;;6.38;1.38;;;;;;;18.85;57.41;98908.88;5114496;28;20054;-61
2022/09/14 07:36:06;;;;;;;10.73;1.40;;;;;;;18.88;57.45;98909.38;5114778;28;20459;-61
2022/09/14 07:38:33;;;;;;;4.65;1.10;;;;;;;18.97;57.49;98902.25;5114283;28;20093;-64
2022/09/14 07:41:19;;;;;;;5.88;1.15;;;;;;;19.03;57.23;98898.09;5113720;28;20151;-61
2022/09/14 07:43:55;;;;;;;4.50;1.05;;;;;;;19.05;57.81;98897.91;5113106;28;20077;-61
2022/09/14 07:46:22;;;;;;;5.53;1.00;;;;;;;19.12;57.35;98901.63;5113185;28;20139;-63
2022/09/14 07:48:58;;;;;;;4.97;1.33;;;;;;;19.15;57.75;98909.31;5113976;28;20509;-62
2022/09/14 07:51:25;;;;;;;3.83;1.13;;;;;;;19.23;57.64;98911.16;5114300;28;20139;-62
2022/09/14 07:53:53;;;;;;;5.85;1.38;;;;;;;19.27;57.43;98904.50;5114387;28;20104;-62
2022/09/14 07:56:20;;;;;;;5.97;1.55;;;;;;;19.32;57.04;98904.00;5114152;28;20087;-63
2022/09/14 07:58:48;;;;;;;6.30;1.50;;;;;;;19.36;57.03;98900.00;5113911;28;20089;-65
2022/09/14 08:01:20;;;;;;;2.55;1.10;;;;;;;19.40;57.12;98907.50;5112968;28;20043;-62
2022/09/14 08:03:48;;;;;;;3.45;1.23;;;;;;;19.44;57.62;98913.31;5113902;28;20044;-62
2022/09/14 08:06:17;;;;;;;4.18;1.00;;;;;;;19.47;57.42;98905.00;5114015;27;20089;-63
2022/09/14 08:08:46;;;;;;;4.72;1.20;;;;;;;19.52;57.50;98917.84;5112350;28;20548;-63
2022/09/14 08:11:14;;;;;;;5.47;1.10;;;;;;;19.55;57.20;98912.16;5113911;28;20085;-63
2022/09/14 08:13:44;;;;;;;4.93;1.10;;;;;;;19.59;57.24;98910.84;5113654;28;20408;-64
2022/09/14 08:16:11;;;;;;;5.28;1.20;;;;;;;19.64;57.34;98916.53;5114002;28;20047;-63
2022/09/14 08:18:38;;;;;;;4.45;1.15;;;;;;;19.70;57.22;98909.66;5112218;28;20138;-62
2022/09/14 08:21:11;;;;;;;3.53;0.82;;;;;;;19.74;57.68;98910.16;5113837;28;20058;-62
2022/09/14 08:23:39;;;;;;;7.32;1.17;;;;;;;19.85;57.43;98909.81;5111169;28;20452;-62
2022/09/14 08:26:08;;;;;;;5.60;0.95;;;;;;;19.93;57.76;98899.13;5112336;28;20472;-62
2022/09/14 08:28:35;;;;;;;3.42;1.00;;;;;;;20.05;57.35;98904.16;5113387;28;20079;-63
2022/09/14 08:31:08;;;;;;;4.20;1.20;;;;;;;20.15;56.66;98904.78;5113392;28;20146;-62
2022/09/14 08:33:39;;;;;;;4.35;1.00;;;;;;;20.26;56.57;98903.56;5113631;28;20138;-64
2022/09/14 08:36:08;;;;;;;6.70;1.20;;;;;;;20.37;56.66;98906.91;5113669;28;20040;-62
2022/09/14 08:38:35;;;;;;;4.53;0.88;;;;;;;20.47;56.11;98901.34;5111981;28;20082;-64
2022/09/14 08:41:17;;;;;;;7.15;1.65;;;;;;;20.51;56.11;98906.16;5113347;28;20134;-63
2022/09/14 08:43:43;;;;;;;4.85;1.05;;;;;;;20.60;55.74;98904.31;5113443;28;20104;-61
2022/09/14 08:46:20;;;;;;;3.85;1.10;;;;;;;20.64;54.66;98904.78;5113446;28;20425;-63
2022/09/14 08:48:48;;;;;;;5.90;1.17;;;;;;;20.68;54.55;98896.22;5113131;28;20096;-63
2022/09/14 08:51:16;;;;;;;5.82;1.50;;;;;;;20.69;54.50;98884.53;5111871;28;20059;-62
2022/09/14 08:53:44;;;;;;;6.70;1.45;;;;;;;20.70;54.24;98880.84;5111817;28;20470;-62
2022/09/14 08:56:28;;;;;;;5.10;1.70;;;;;;;20.66;54.35;98879.53;5112964;28;20135;-62
2022/09/14 08:59:25;;;;;;;4.07;1.05;;;;;;;20.67;54.49;98875.84;5111567;28;20086;-62
2022/09/14 09:02:18;;;;;;;3.70;1.40;;;;;;;20.68;54.13;98872.16;5113081;28;20086;-62
2022/09/14 09:05:26;;;;;;;6.53;1.63;;;;;;;20.68;54.57;98874.81;5112749;28;20479;-62
2022/09/14 09:08:05;;;;;;;6.50;1.58;;;;;;;20.72;53.99;98883.34;5113068;28;20047;-62
2022/09/14 09:10:32;;;;;;;4.78;1.42;;;;;;;;;;5112735;28;20051;-64
2022/09/14 09:13:03;;;;;;;5.03;2.00;;;;;;;20.74;53.52;98883.19;5112747;28;20047;-62
2022/09/14 09:15:39;;;;;;;3.65;0.93;;;;;;;20.72;53.38;98879.84;5112671;28;20138;-62
2022/09/14 09:18:10;;;;;;;3.97;1.20;;;;;;;20.73;53.30;98882.34;5112494;28;20130;-62
2022/09/14 09:20:50;;;;;;;3.17;0.90;;;;;;;20.70;53.56;98882.69;5111279;28;20105;-62
2022/09/14 09:23:19;;;;;;;5.03;0.93;;;;;;;20.75;53.36;98887.50;5112371;28;20090;-61
2022/09/14 09:25:46;;;;;;;4.63;1.15;;;;;;;20.75;53.65;98882.16;5112366;28;20059;-62
2022/09/14 09:28:15;;;;;;;4.00;1.08;;;;;;;20.74;53.39;98875.16;5112386;28;20109;-63
2022/09/14 09:30:43;;;;;;;3.40;1.25;;;;;;;20.75;53.21;98874.16;5111082;28;20457;-62
2022/09/14 09:33:19;;;;;;;4.75;1.00;;;;;;;20.72;52.44;98879.84;5112298;28;20048;-62
2022/09/14 09:35:46;;;;;;;4.28;1.27;;;;;;;20.73;52.96;98890.38;5110604;28;20043;-61
2022/09/14 09:38:18;;;;;;;4.95;1.23;;;;;;;20.69;52.85;98887.22;5112270;28;20047;-65
2022/09/14 09:40:50;;;;;;;4.80;1.00;;;;;;;20.69;53.21;98884.53;5110844;28;20052;-63
2022/09/14 09:43:19;;;;;;;4.80;1.70;;;;;;;20.69;53.00;98886.38;5112324;28;20130;-62
2022/09/14 09:46:06;;;;;;;4.18;1.52;;;;;;;20.68;53.09;98879.38;5111921;28;20086;-62
2022/09/14 09:48:42;;;;;;;3.63;1.30;;;;;;;20.66;53.34;98876.84;5110551;28;20519;-62
2022/09/14 09:51:16;;;;;;;5.05;1.13;;;;;;;20.66;53.22;98871.50;5112097;28;20043;-64
2022/09/14 09:54:22;;;;;;;3.70;1.10;;;;;;;20.64;53.02;98868.16;5111891;28;20130;-65
2022/09/14 09:56:51;;;;;;;3.55;1.08;;;;;;;20.68;53.07;98857.97;5101025;28;20377;-61
2022/09/14 09:59:36;;;;;;;3.80;1.70;;;;;;;20.64;53.36;98862.00;5111582;28;20134;-62
2022/09/14 10:02:25;;;;;;;7.35;1.80;;;;;;;20.63;53.49;98863.84;5111647;28;20479;-61
2022/09/14 10:04:58;;;;;;;2.70;1.23;;;;;;;20.68;53.48;98871.34;5111556;28;20051;-63
2022/09/14 10:07:25;;;;;;;4.85;1.70;;;;;;;20.70;53.49;98869.31;5111864;28;20073;-62
2022/09/14 10:10:07;;;;;;;4.82;1.48;;;;;;;20.70;53.29;98870.16;5111558;28;20048;-61
2022/09/14 10:12:35;;;;;;;4.78;1.30;;;;;;;20.74;53.81;98872.47;5110623;28;20595;-61
2022/09/14 10:15:04;;;;;;;5.32;1.55;;;;;;;20.76;53.56;98879.31;5111522;28;20079;-64
2022/09/14 10:17:31;;;;;;;4.55;1.15;;;;;;;20.79;53.72;98875.47;5111754;28;20166;-62
2022/09/14 10:19:57;;;;;;;4.68;1.33;;;;;;;20.83;53.64;98880.25;5111246;28;20043;-61
2022/09/14 10:22:34;;;;;;;4.28;1.08;;;;;;;20.87;53.57;98869.22;5111267;28;20077;-62
2022/09/14 10:25:13;;;;;;;3.13;1.30;;;;;;;20.87;53.35;98870.09;5111562;28;20148;-59
2022/09/14 10:27:43;;;;;;;3.53;1.42;;;;;;;20.93;53.40;98866.69;5111291;28;20117;-60
2022/09/14 10:30:16;;;;;;;7.97;1.73;;;;;;;20.93;53.08;98865.88;5111540;28;20134;-60
2022/09/14 10:32:56;;;;;;;6.80;1.73;;;;;;;20.95;53.43;98864.69;5111419;28;20112;-60
2022/09/14 10:35:34;;;;;;;4.50;1.58;;;;;;;20.95;53.07;98858.50;5110262;28;20055;-61
2022/09/14 10:38:23;;;;;;;4.65;1.50;;;;;;;20.94;53.23;98859.53;5111238;28;20043;-62
2022/09/14 10:41:21;;;;;;;5.03;1.30;;;;;;;20.95;52.97;98858.50;5111146;28;20548;-64
2022/09/14 10:44:10;;;;;;;4.00;1.20;;;;;;;20.96;53.11;98855.66;5111267;28;20052;-63
2022/09/14 10:47:18;;;;;;;5.32;1.38;;;;;;;20.94;53.17;98857.66;5109355;28;20056;-62
2022/09/14 10:50:01;;;;;;;5.40;1.58;;;;;;;20.99;53.09;98861.66;5105211;28;20047;-62
2022/09/14 10:52:41;;;;;;;4.97;1.38;;;;;;;21.00;52.81;98857.97;5110074;28;20536;-62
2022/09/14 10:55:32;;;;;;;6.28;1.88;;;;;;;21.01;52.28;98862.31;5110084;28;20128;-61
2022/09/14 10:58:05;;;;;;;3.70;1.33;;;;;;;21.05;52.40;98866.31;5109747;28;20096;-63
2022/09/14 11:00:50;;;;;;;4.15;1.23;;;;;;;21.05;51.98;98855.59;5109809;28;20044;-62
2022/09/14 11:03:23;;;;;;;5.43;1.25;;;;;;;21.11;52.28;98862.09;5111015;28;20091;-61
2022/09/14 11:06:23;;;;;;;3.00;1.17;;;;;;;21.08;52.09;98860.56;5110996;28;20094;-62
2022/09/14 11:09:05;;;;;;;6.70;1.35;;;;;;;21.15;51.95;98860.72;5110984;28;20130;-61
2022/09/14 11:11:53;;;;;;;5.00;1.35;;;;;;;21.20;52.30;98864.50;5110725;28;20057;-62
2022/09/14 11:14:40;;;;;;;4.55;1.50;;;;;;;21.25;51.98;98857.78;5111127;28;20139;-63
2022/09/14 11:17:07;;;;;;;4.05;1.02;;;;;;;21.32;52.07;98858.75;5109718;28;20056;-62
2022/09/14 11:19:48;;;;;;;5.20;1.20;;;;;;;21.34;51.79;98865.56;5110568;28;20134;-62
2022/09/14 11:22:21;;;;;;;3.80;1.40;;;;;;;21.37;51.34;98864.38;5111055;28;20161;-62
2022/09/14 11:25:17;;;;;;;3.45;1.23;;;;;;;21.39;51.92;98854.34;5109514;28;20048;-62
2022/09/14 11:27:59;;;;;;;3.08;0.80;;;;;;;21.46;51.07;98854.44;5101214;28;20126;-62
2022/09/14 11:30:41;;;;;;;7.15;1.35;;;;;;;21.53;50.85;98857.22;5110059;28;20109;-63
2022/09/14 11:33:19;;;;;;;3.83;1.27;;;;;;;21.60;51.31;98852.78;5110691;28;20092;-61
2022/09/14 11:35:56;;;;;;;3.97;1.30;;;;;;;21.65;51.26;98855.78;5109637;28;20499;-60
2022/09/14 11:38:35;;;;;;;2.97;1.17;;;;;;;21.68;51.11;98844.69;5110215;28;20472;-59
2022/09/14 11:41:25;;;;;;;4.35;1.10;;;;;;;21.72;51.04;98850.53;5109497;28;20105;-60
2022/09/14 11:44:33;;;;;;;6.68;1.50;;;;;;;21.77;50.63;98839.28;5110625;28;20126;-60
2022/09/14 11:47:19;;;;;;;6.97;1.60;;;;;;;21.82;50.56;98834.19;5110468;28;20079;-61
2022/09/14 11:50:04;;;;;;;4.55;1.73;;;;;;;21.90;50.58;98844.81;5110429;28;20050;-61
2022/09/14 11:52:32;;;;;;;6.10;1.80;;;;;;;21.94;50.77;98837.28;5110452;28;20093;-60
2022/09/14 11:55:01;;;;;;;4.20;1.10;;;;;;;21.96;50.49;98835.22;5109072;28;20459;-60
2022/09/14 11:57:30;;;;;;;8.32;1.60;;;;;;;21.99;49.97;98838.34;5110268;28;20052;-60